UPSVAC Airport Information Service

Guam Antonio B. Won Pat International Airport

ICAO: PGUM Country: Guam
Latitude: 13.4839 Longitude: 144.797
Latest Arrival : UPS1400 (PHNL-PGUM) Latest Departure : UPS1323 (PGUM-VHHH)


WX CaptureLIVE
Data provided by noaa.gov | Fetched at 01:28:50

METAR : PGUM 150054Z 10008KT 10SM SCT025 32/23 A2990 RMK AO2 SLP116 T03170233 $

TAF : PGUM 142320Z 1500/1606 12010KT P6SM FEW020 FEW050


Runway Data for PGUM
Data provided by openaviationdata.com

Runway ID Mag Var Hdg Length Elevation Surface ILS Freq ILS Id ILS Slope
06L 2 62° 10022 ft 298 ft Asphalt 110.3 IGUM 3
06R 2 62° 8009 ft 298 ft Asphalt -- -- --
24L 2 242° 8009 ft 298 ft Asphalt -- -- --
24R 2 242° 10022 ft 298 ft Asphalt -- -- --

Guam Antonio B. Won Pat International Airport, Guam
Use only for reference purposes



Not for navigational purposes.